createdAt,value
2022-11-28T00:01:24.225Z,99417.22
2022-11-28T00:03:51.805Z,99414.34
2022-11-28T00:06:18.896Z,99421.37
2022-11-28T00:08:46.185Z,99417.47
2022-11-28T00:11:15.347Z,99411.09
2022-11-28T00:13:42.833Z,99416.47
2022-11-28T00:16:14.857Z,99414.41
2022-11-28T00:18:42.038Z,99405.38
2022-11-28T00:21:11.616Z,99401.66
2022-11-28T00:23:38.693Z,99396.28
2022-11-28T00:26:09.350Z,99389.06
2022-11-28T00:28:36.841Z,99387.19
2022-11-28T00:31:04.377Z,99387.84
2022-11-28T00:33:32.945Z,99383.31
2022-11-28T00:36:04.907Z,99386.81
2022-11-28T00:38:32.019Z,99377.72
2022-11-28T00:41:11.559Z,99374.41
2022-11-28T00:43:38.342Z,99378.56
2022-11-28T00:46:05.387Z,99380.41
2022-11-28T00:48:34.009Z,99376.91
2022-11-28T00:51:21.890Z,99374.03
2022-11-28T00:53:51.121Z,99376.53
2022-11-28T00:56:21.122Z,99373.00
2022-11-28T00:58:49.829Z,99370.13
2022-11-28T01:01:24.794Z,99364.75
2022-11-28T01:03:53.992Z,99363.72
2022-11-28T01:06:29.311Z,99356.50
2022-11-28T01:08:57.868Z,99356.09
2022-11-28T01:11:25.066Z,99352.59
2022-11-28T01:13:55.282Z,99350.75
2022-11-28T01:16:22.247Z,99351.56
2022-11-28T01:18:49.099Z,99346.00
2022-11-28T01:21:16.231Z,99338.56
2022-11-28T01:23:42.997Z,99329.69
2022-11-28T01:26:15.282Z,99325.97
2022-11-28T01:28:42.129Z,99330.31
2022-11-28T01:31:12.271Z,99329.28
2022-11-28T01:33:39.113Z,99320.00
2022-11-28T01:36:06.370Z,99314.84
2022-11-28T01:38:34.608Z,99309.47
2022-11-28T01:41:01.914Z,99301.59
2022-11-28T01:43:28.851Z,99296.03
2022-11-28T01:45:56.211Z,99295.84
2022-11-28T01:48:39.904Z,99289.63
2022-11-28T01:51:09.792Z,99292.16
2022-11-28T01:53:44.274Z,99284.72
2022-11-28T01:56:27.713Z,99282.88
2022-11-28T01:59:02.638Z,99278.53
2022-11-28T02:01:29.754Z,99273.97
2022-11-28T02:03:58.796Z,99270.66
2022-11-28T02:06:27.502Z,99269.22
2022-11-28T02:08:55.675Z,99260.97
2022-11-28T02:11:44.313Z,99268.84
2022-11-28T02:14:43.892Z,99267.19
2022-11-28T02:17:25.069Z,99257.47
2022-11-28T02:20:16.358Z,99251.88
2022-11-28T02:22:59.792Z,99247.53
2022-11-28T02:25:32.571Z,99239.28
2022-11-28T02:28:11.750Z,99241.78
2022-11-28T02:31:35.934Z,99230.19
2022-11-28T02:34:14.847Z,99229.16
2022-11-28T02:36:51.470Z,99215.72
2022-11-28T02:39:44.136Z,99213.03
2022-11-28T02:42:18.526Z,99210.16
2022-11-28T02:44:57.985Z,99208.28
2022-11-28T02:47:32.243Z,99223.37
2022-11-28T02:50:08.186Z,99225.06
2022-11-28T02:52:41.025Z,99219.69
2022-11-28T02:55:09.080Z,99214.09
2022-11-28T02:57:42.301Z,99203.34
2022-11-28T03:00:43.763Z,99206.88
2022-11-28T03:03:35.099Z,99207.50
2022-11-28T03:06:05.563Z,99208.31
2022-11-28T03:08:45.386Z,99213.31
2022-11-28T03:11:49.689Z,99212.28
2022-11-28T03:14:40.158Z,99216.47
2022-11-28T03:17:38.024Z,99210.88
2022-11-28T03:20:36.938Z,99207.16
2022-11-28T03:23:21.961Z,99209.66
2022-11-28T03:26:21.045Z,99207.78
2022-11-28T03:29:09.477Z,99208.81
2022-11-28T03:31:49.577Z,99197.88
2022-11-28T03:34:22.443Z,99194.56
2022-11-28T03:36:57.712Z,99186.28
2022-11-28T03:39:32.790Z,99177.41
2022-11-28T03:42:09.108Z,99174.50
2022-11-28T03:44:42.799Z,99179.69
2022-11-28T03:47:10.414Z,99177.63
2022-11-28T03:50:00.305Z,99168.72
2022-11-28T03:52:31.399Z,99169.97
2022-11-28T03:55:06.385Z,99171.63
2022-11-28T03:57:39.214Z,99169.75
2022-11-28T04:00:09.469Z,99168.94
2022-11-28T04:02:55.512Z,99166.03
2022-11-28T04:05:54.028Z,99172.44
2022-11-28T04:08:27.545Z,99169.56
2022-11-28T04:11:07.294Z,99165.22
2022-11-28T04:13:50.328Z,99159.84
2022-11-28T04:16:25.644Z,99157.16
2022-11-28T04:18:57.725Z,99159.84
2022-11-28T04:21:37.004Z,99155.50
2022-11-28T04:24:08.894Z,99152.78
2022-11-28T04:26:43.968Z,99145.56
2022-11-28T04:29:15.435Z,99145.56
2022-11-28T04:31:45.143Z,99144.12
2022-11-28T04:34:16.890Z,99140.81
2022-11-28T04:36:45.400Z,99153.22
2022-11-28T04:39:19.614Z,99153.22
2022-11-28T04:41:55.443Z,99157.56
2022-11-28T04:44:29.956Z,99162.13
2022-11-28T04:46:58.009Z,99150.75
2022-11-28T04:49:26.981Z,99150.75
2022-11-28T04:51:59.863Z,99149.94
2022-11-28T04:54:48.459Z,99150.56
2022-11-28T04:57:24.535Z,99143.53
2022-11-28T04:59:52.931Z,99146.00
2022-11-28T05:02:21.914Z,99141.47
2022-11-28T05:04:48.728Z,99133.38
2022-11-28T05:07:15.548Z,99135.88
2022-11-28T05:09:42.531Z,99128.84
2022-11-28T05:12:09.337Z,99132.34
2022-11-28T05:14:36.119Z,99138.34
2022-11-28T05:17:02.959Z,99131.97
2022-11-28T05:19:29.851Z,99125.37
2022-11-28T05:21:57.843Z,99129.91
2022-11-28T05:24:30.757Z,99123.50
2022-11-28T05:26:59.017Z,99118.75
2022-11-28T05:29:25.876Z,99120.41
2022-11-28T05:31:52.791Z,99121.25
2022-11-28T05:34:19.667Z,99134.50
2022-11-28T05:36:47.012Z,99124.56
2022-11-28T05:39:13.815Z,99116.69
2022-11-28T05:41:40.671Z,99114.63
2022-11-28T05:44:07.625Z,99116.28
2022-11-28T05:46:34.412Z,99117.13
2022-11-28T05:49:01.792Z,99112.56
2022-11-28T05:51:28.580Z,99117.75
2022-11-28T05:53:55.739Z,99113.19
2022-11-28T05:56:25.590Z,99109.87
2022-11-28T05:58:54.283Z,99114.84
2022-11-28T06:01:24.344Z,99114.63
2022-11-28T06:03:52.236Z,99113.59
2022-11-28T06:06:21.612Z,99112.78
2022-11-28T06:08:49.624Z,99115.47
2022-11-28T06:11:16.827Z,99110.91
2022-11-28T06:13:44.795Z,99115.25
2022-11-28T06:16:14.795Z,99118.56
2022-11-28T06:18:41.766Z,99116.72
2022-11-28T06:21:10.294Z,99119.19
2022-11-28T06:23:38.821Z,99114.84
2022-11-28T06:26:08.112Z,99110.09
2022-11-28T06:28:35.314Z,99104.72
2022-11-28T06:31:02.456Z,99110.97
2022-11-28T06:33:29.797Z,99096.47
2022-11-28T06:36:01.789Z,99100.81
2022-11-28T06:38:29.579Z,99098.97
2022-11-28T06:40:58.011Z,99096.06
2022-11-28T06:43:25.155Z,99098.53
2022-11-28T06:45:52.219Z,99099.38
2022-11-28T06:48:20.026Z,99102.88
2022-11-28T06:50:47.153Z,99099.16
2022-11-28T06:53:14.722Z,99103.50
2022-11-28T06:55:41.735Z,99101.66
2022-11-28T06:58:08.612Z,99104.34
2022-11-28T07:00:36.090Z,99103.50
2022-11-28T07:03:02.964Z,99098.75
2022-11-28T07:05:31.181Z,99106.81
2022-11-28T07:07:58.838Z,99103.09
2022-11-28T07:10:27.462Z,99108.91
2022-11-28T07:13:03.798Z,99099.78
2022-11-28T07:15:32.071Z,99100.41
2022-11-28T07:17:58.914Z,99104.75
2022-11-28T07:20:25.736Z,99093.16
2022-11-28T07:22:52.519Z,99099.16
2022-11-28T07:25:19.385Z,99094.63
2022-11-28T07:27:46.266Z,99093.59
2022-11-28T07:30:13.418Z,99090.72
2022-11-28T07:32:41.153Z,99095.88
2022-11-28T07:35:09.042Z,99088.84
2022-11-28T07:37:36.323Z,99087.63
2022-11-28T07:40:04.375Z,99083.06
2022-11-28T07:42:31.144Z,99088.03
2022-11-28T07:44:57.907Z,99091.75
2022-11-28T07:47:24.725Z,99089.88
2022-11-28T07:49:51.641Z,99085.34
2022-11-28T07:52:18.452Z,99083.47
2022-11-28T07:54:45.318Z,99082.44
2022-11-28T07:57:13.205Z,99081.41
2022-11-28T07:59:40.648Z,99087.41
2022-11-28T08:02:07.713Z,99084.50
2022-11-28T08:04:34.838Z,99089.69
2022-11-28T08:07:01.653Z,99082.44
2022-11-28T08:09:28.727Z,99091.12
2022-11-28T08:11:55.590Z,99086.34
2022-11-28T08:14:22.413Z,99082.84
2022-11-28T08:16:49.697Z,99086.16
2022-11-28T08:19:16.633Z,99089.66
2022-11-28T08:21:43.418Z,99088.44
2022-11-28T08:24:11.364Z,99089.06
2022-11-28T08:26:38.474Z,99091.78
2022-11-28T08:29:05.313Z,99086.59
2022-11-28T08:31:37.526Z,99085.72
2022-11-28T08:34:07.485Z,99077.88
2022-11-28T08:36:34.567Z,99086.16
2022-11-28T08:39:22.988Z,99082.66
2022-11-28T08:41:49.923Z,99079.13
2022-11-28T08:44:16.859Z,99083.69
2022-11-28T08:46:43.664Z,99087.81
2022-11-28T08:49:10.464Z,99082.22
2022-11-28T08:51:37.466Z,99082.03
2022-11-28T08:54:04.445Z,99082.84
2022-11-28T08:56:31.499Z,99079.34
2022-11-28T08:58:58.337Z,99085.53
2022-11-28T09:01:26.831Z,99075.41
2022-11-28T09:03:55.784Z,99074.97
2022-11-28T09:06:23.702Z,99075.81
2022-11-28T09:08:51.870Z,99072.06
2022-11-28T09:11:21.379Z,99072.06
2022-11-28T09:13:48.466Z,99068.34
2022-11-28T09:16:15.701Z,99068.34
2022-11-28T09:18:43.099Z,99055.72
2022-11-28T09:21:12.181Z,99058.59
2022-11-28T09:23:41.548Z,99063.56
2022-11-28T09:26:10.289Z,99064.84
2022-11-28T09:28:37.528Z,99061.09
2022-11-28T09:31:06.436Z,99054.72
2022-11-28T09:33:34.124Z,99058.84
2022-11-28T09:36:06.551Z,99049.94
2022-11-28T09:38:33.334Z,99058.63
2022-11-28T09:41:02.068Z,99043.94
2022-11-28T09:43:47.714Z,99046.81
2022-11-28T09:46:26.223Z,99041.44
2022-11-28T09:48:58.187Z,99036.66
2022-11-28T09:51:44.558Z,99032.94
2022-11-28T09:54:41.030Z,99029.41
2022-11-28T09:57:13.708Z,99030.44
2022-11-28T09:59:41.037Z,99030.44
2022-11-28T10:02:33.026Z,99029.59
2022-11-28T10:05:08.888Z,99021.31
2022-11-28T10:08:04.282Z,99021.31
2022-11-28T10:10:54.265Z,99015.72
2022-11-28T10:13:46.946Z,99024.41
2022-11-28T10:16:20.375Z,99021.50
2022-11-28T10:18:52.193Z,99015.69
2022-11-28T10:21:28.449Z,99024.41
2022-11-28T10:24:02.272Z,99019.63
2022-11-28T10:26:38.858Z,99015.69
2022-11-28T10:29:58.365Z,99013.81
2022-11-28T10:32:34.662Z,99009.03
2022-11-28T10:35:07.008Z,98995.37
2022-11-28T10:37:38.230Z,98997.00
2022-11-28T10:40:17.396Z,98996.59
2022-11-28T10:43:22.743Z,98999.28
2022-11-28T10:46:18.432Z,98989.13
2022-11-28T10:48:47.152Z,98991.59
2022-11-28T10:51:34.832Z,98986.38
2022-11-28T10:54:25.814Z,98985.34
2022-11-28T10:57:14.512Z,98981.81
2022-11-28T10:59:56.257Z,98982.03
2022-11-28T11:02:41.347Z,98978.31
2022-11-28T11:05:17.444Z,98972.09
2022-11-28T11:07:50.588Z,98970.44
2022-11-28T11:10:20.967Z,98966.69
2022-11-28T11:12:51.311Z,98965.66
2022-11-28T11:15:32.651Z,98960.91
2022-11-28T11:18:26.389Z,98963.38
2022-11-28T11:21:14.240Z,98955.06
2022-11-28T11:23:41.172Z,98957.78
2022-11-28T11:26:19.629Z,98959.22
2022-11-28T11:28:51.142Z,98962.50
2022-11-28T11:31:42.971Z,98953.16
2022-11-28T11:34:21.471Z,98953.56
2022-11-28T11:36:48.883Z,98950.44
2022-11-28T11:39:18.936Z,98948.34
2022-11-28T11:42:02.369Z,98940.25
2022-11-28T11:44:34.710Z,98938.38
2022-11-28T11:47:05.596Z,98940.63
2022-11-28T11:49:43.773Z,98937.94
2022-11-28T11:52:14.232Z,98935.06
2022-11-28T11:55:04.235Z,98930.50
2022-11-28T11:57:38.934Z,98934.00
2022-11-28T12:00:15.099Z,98922.19
2022-11-28T12:02:46.104Z,98920.31
2022-11-28T12:05:17.263Z,98923.00
2022-11-28T12:08:11.713Z,98913.88
2022-11-28T12:11:00.999Z,98912.00
2022-11-28T12:13:27.899Z,98915.53
2022-11-28T12:16:10.244Z,98901.84
2022-11-28T12:19:02.649Z,98908.88
2022-11-28T12:21:41.220Z,98906.19
2022-11-28T12:24:16.572Z,98905.97
2022-11-28T12:26:51.743Z,98907.59
2022-11-28T12:29:56.823Z,98907.59
2022-11-28T12:32:36.794Z,98894.34
2022-11-28T12:35:18.545Z,98911.78
2022-11-28T12:38:17.581Z,98909.09
2022-11-28T12:41:18.704Z,98906.41
2022-11-28T12:44:03.410Z,98910.53
2022-11-28T12:46:48.597Z,98907.81
2022-11-28T12:49:26.063Z,98905.97
2022-11-28T12:51:57.499Z,98905.97
2022-11-28T12:54:49.421Z,98907.59
2022-11-28T12:57:30.772Z,98910.53
2022-11-28T13:00:13.346Z,98910.31
2022-11-28T13:02:57.358Z,98909.47
2022-11-28T13:06:01.855Z,98912.19
2022-11-28T13:09:10.623Z,98912.19
2022-11-28T13:11:51.160Z,98908.88
2022-11-28T13:14:29.877Z,98898.91
2022-11-28T13:17:04.016Z,98906.19
2022-11-28T13:19:40.963Z,98905.13
2022-11-28T13:22:23.486Z,98901.16
2022-11-28T13:25:09.177Z,98904.69
2022-11-28T13:27:47.773Z,98906.34
2022-11-28T13:30:22.335Z,98909.88
2022-11-28T13:33:21.447Z,98914.66
2022-11-28T13:35:48.661Z,98914.44
2022-11-28T13:38:41.009Z,98914.22
2022-11-28T13:42:09.573Z,98916.53
2022-11-28T13:44:29.750Z,98924.16
2022-11-28T13:46:56.741Z,98910.69
2022-11-28T13:49:27.805Z,98915.47
2022-11-28T13:52:19.552Z,98924.41
2022-11-28T13:54:54.046Z,98923.56
2022-11-28T13:57:22.793Z,98924.41
2022-11-28T13:59:54.277Z,98925.00
2022-11-28T14:02:33.146Z,98919.59
2022-11-28T14:05:00.518Z,98929.13
2022-11-28T14:07:33.224Z,98931.00
2022-11-28T14:10:28.732Z,98929.13
2022-11-28T14:13:30.949Z,98928.09
2022-11-28T14:16:17.899Z,98929.34
2022-11-28T14:19:02.834Z,98919.59
2022-11-28T14:21:32.655Z,98922.53
2022-11-28T14:24:08.572Z,98920.25
2022-11-28T14:26:42.962Z,98917.56
2022-11-28T14:29:26.133Z,98916.34
2022-11-28T14:32:27.795Z,98914.94
2022-11-28T14:34:45.741Z,98918.87
2022-11-28T14:37:21.724Z,98922.62
2022-11-28T14:39:50.131Z,98925.50
2022-11-28T14:45:32.589Z,98921.22
2022-11-28T14:48:19.222Z,98924.94
2022-11-28T14:50:46.821Z,98927.25
2022-11-28T14:53:36.402Z,98921.88
2022-11-28T14:56:15.704Z,98925.22
2022-11-28T14:58:47.988Z,98934.34
2022-11-28T15:01:25.247Z,98931.44
2022-11-28T15:04:39.941Z,98927.91
2022-11-28T15:07:22.319Z,98938.91
2022-11-28T15:10:05.862Z,98932.91
2022-11-28T15:12:49.774Z,98932.91
2022-11-28T15:15:17.717Z,98936.88
2022-11-28T15:17:49.411Z,98931.47
2022-11-28T15:20:29.670Z,98927.13
2022-11-28T15:22:56.607Z,98921.34
2022-11-28T15:25:29.594Z,98922.41
2022-11-28T15:27:56.928Z,98925.09
2022-11-28T15:30:26.764Z,98923.66
2022-11-28T15:33:00.146Z,98924.28
2022-11-28T15:35:28.226Z,98926.19
2022-11-28T15:37:58.221Z,98926.56
2022-11-28T15:40:32.682Z,98923.47
2022-11-28T15:43:01.679Z,98930.09
2022-11-28T15:45:37.380Z,98927.41
2022-11-28T15:48:04.832Z,98930.31
2022-11-28T15:50:34.015Z,98930.53
2022-11-28T15:53:15.049Z,98935.31
2022-11-28T15:55:42.076Z,98932.81
2022-11-28T15:58:23.493Z,98933.44
2022-11-28T16:01:13.639Z,98935.50
2022-11-28T16:03:49.932Z,98932.63
2022-11-28T16:06:18.776Z,98936.13
2022-11-28T16:08:51.428Z,98941.72
2022-11-28T16:11:21.094Z,98939.88
2022-11-28T16:13:48.610Z,98938.00
2022-11-28T16:16:20.000Z,98932.00
2022-11-28T16:19:09.057Z,98935.75
2022-11-28T16:21:51.015Z,98935.75
2022-11-28T16:24:27.101Z,98937.59
2022-11-28T16:27:00.265Z,98937.81
2022-11-28T16:29:43.223Z,98938.44
2022-11-28T16:32:23.265Z,98943.19
2022-11-28T16:34:52.280Z,98952.31
2022-11-28T16:37:25.107Z,98948.59
2022-11-28T16:40:22.213Z,98958.13
2022-11-28T16:42:56.605Z,98952.13
2022-11-28T16:45:29.429Z,98954.84
2022-11-28T16:48:06.506Z,98954.00
2022-11-28T16:50:33.406Z,98954.44
2022-11-28T16:53:00.669Z,98958.78
2022-11-28T16:55:27.505Z,98963.56
2022-11-28T16:58:16.270Z,98959.81
2022-11-28T17:00:56.637Z,98963.97
2022-11-28T17:03:53.196Z,98965.44
2022-11-28T17:06:27.528Z,98969.38
2022-11-28T17:08:56.053Z,98972.47
2022-11-28T17:11:26.786Z,98973.28
2022-11-28T17:13:57.270Z,98975.16
2022-11-28T17:16:26.928Z,98977.63
2022-11-28T17:18:54.855Z,98967.28
2022-11-28T17:21:38.792Z,98967.28
2022-11-28T17:24:12.623Z,98959.00
2022-11-28T17:26:39.924Z,98960.03
2022-11-28T17:29:10.914Z,98957.56
2022-11-28T17:31:42.491Z,98952.78
2022-11-28T17:34:22.120Z,98958.38
2022-11-28T17:36:50.063Z,98954.03
2022-11-28T17:39:17.999Z,98958.16
2022-11-28T17:41:47.824Z,98956.31
2022-11-28T17:44:18.872Z,98957.34
2022-11-28T17:46:46.800Z,98954.03
2022-11-28T17:49:14.676Z,98961.06
2022-11-28T17:51:42.381Z,98959.44
2022-11-28T17:54:13.464Z,98963.16
2022-11-28T17:56:40.615Z,98960.66
2022-11-28T17:59:08.319Z,98967.50
2022-11-28T18:01:35.579Z,98964.81
2022-11-28T18:04:04.624Z,98967.69
2022-11-28T18:06:32.472Z,98967.03
2022-11-28T18:09:03.130Z,98964.34
2022-11-28T18:11:33.348Z,98964.16
2022-11-28T18:14:00.636Z,98958.56
2022-11-28T18:16:28.149Z,98952.34
2022-11-28T18:18:55.055Z,98956.47
2022-11-28T18:21:22.423Z,98952.13
2022-11-28T18:23:51.197Z,98960.00
2022-11-28T18:26:21.052Z,98958.97
2022-11-28T18:28:48.274Z,98956.47
2022-11-28T18:31:17.242Z,98962.91
2022-11-28T18:33:44.982Z,98959.38
2022-11-28T18:36:14.949Z,98956.91
2022-11-28T18:38:45.127Z,98965.19
2022-11-28T18:41:14.548Z,98963.13
2022-11-28T18:43:42.232Z,98956.09
2022-11-28T18:46:12.625Z,98953.38
2022-11-28T18:48:42.053Z,98967.06
2022-11-28T18:51:19.145Z,98960.84
2022-11-28T18:53:47.693Z,98955.47
2022-11-28T18:56:16.242Z,98955.69
2022-11-28T18:58:46.630Z,98952.16
2022-11-28T19:01:22.741Z,98957.34
2022-11-28T19:03:52.966Z,98956.50
2022-11-28T19:06:21.098Z,98955.47
2022-11-28T19:08:49.302Z,98954.63
2022-11-28T19:11:17.605Z,98950.09
2022-11-28T19:13:46.233Z,98953.00
2022-11-28T19:16:16.388Z,98948.44
2022-11-28T19:18:44.725Z,98951.34
2022-11-28T19:21:15.174Z,98949.91
2022-11-28T19:23:42.634Z,98947.63
2022-11-28T19:26:12.838Z,98952.81
2022-11-28T19:28:41.523Z,98946.81
2022-11-28T19:31:21.111Z,98951.16
2022-11-28T19:34:00.541Z,98952.19
2022-11-28T19:36:30.768Z,98946.81
2022-11-28T19:38:59.369Z,98943.50
2022-11-28T19:41:28.058Z,98936.03
2022-11-28T19:43:54.920Z,98946.19
2022-11-28T19:46:23.444Z,98951.56
2022-11-28T19:48:51.900Z,98952.62
2022-11-28T19:51:20.742Z,98959.66
2022-11-28T19:53:47.646Z,98963.38
2022-11-28T19:56:18.550Z,98969.16
2022-11-28T19:58:48.400Z,98964.00
2022-11-28T20:01:20.887Z,98962.13
2022-11-28T20:03:49.274Z,98967.50
2022-11-28T20:06:24.993Z,98967.50
2022-11-28T20:08:53.960Z,98971.66
2022-11-28T20:11:23.713Z,98968.16
2022-11-28T20:13:59.765Z,98972.69
2022-11-28T20:16:30.327Z,98972.06
2022-11-28T20:18:57.872Z,98966.69
2022-11-28T20:21:25.188Z,98968.53
2022-11-28T20:23:58.489Z,98968.16
2022-11-28T20:26:27.406Z,98967.28
2022-11-28T20:28:55.959Z,98966.69
2022-11-28T20:31:27.034Z,98960.69
2022-11-28T20:33:55.109Z,98973.09
2022-11-28T20:36:25.263Z,98965.25
2022-11-28T20:38:53.318Z,98960.28
2022-11-28T20:41:22.701Z,98966.28
2022-11-28T20:43:50.360Z,98965.25
2022-11-28T20:46:24.991Z,98968.75
2022-11-28T20:48:52.390Z,98965.44
2022-11-28T20:51:25.484Z,98974.56
2022-11-28T20:53:53.625Z,98961.94
2022-11-28T20:56:30.157Z,98968.97
2022-11-28T20:59:03.658Z,98970.63
2022-11-28T21:01:35.387Z,98971.87
2022-11-28T21:04:04.694Z,98976.22
2022-11-28T21:06:32.368Z,98977.47
2022-11-28T21:08:59.818Z,98966.69
2022-11-28T21:14:18.979Z,98976.84
2022-11-28T21:16:45.976Z,98976.84
2022-11-28T21:19:12.846Z,98974.97
2022-11-28T21:21:41.257Z,98974.56
2022-11-28T21:24:11.825Z,98976.44
2022-11-28T21:26:43.245Z,98974.56
2022-11-28T21:29:13.543Z,98968.97
2022-11-28T21:31:43.841Z,98970.84
2022-11-28T21:34:14.467Z,98968.97
2022-11-28T21:36:42.357Z,98976.66
2022-11-28T21:39:14.665Z,98968.78
2022-11-28T21:41:41.576Z,98961.34
2022-11-28T21:44:08.676Z,98965.47
2022-11-28T21:46:35.477Z,98966.72
2022-11-28T21:49:02.327Z,98961.53
2022-11-28T21:51:29.609Z,98960.72
2022-11-28T21:53:57.595Z,98954.72
2022-11-28T21:56:25.341Z,98959.88
2022-11-28T21:58:52.425Z,98960.50
2022-11-28T22:01:21.275Z,98959.03
2022-11-28T22:03:48.410Z,98959.47
2022-11-28T22:06:19.945Z,98957.63
2022-11-28T22:08:48.654Z,98967.94
2022-11-28T22:11:16.447Z,98960.53
2022-11-28T22:13:45.378Z,98955.13
2022-11-28T22:16:19.819Z,98955.97
2022-11-28T22:18:48.252Z,98964.87
2022-11-28T22:24:03.439Z,98960.53
2022-11-28T22:26:30.282Z,98957.84
2022-11-28T22:28:58.890Z,98964.66
2022-11-28T22:31:26.007Z,98962.97
2022-11-28T22:33:53.203Z,98959.47
2022-11-28T22:36:21.202Z,98963.59
2022-11-28T22:38:49.609Z,98960.09
2022-11-28T22:41:23.299Z,98959.03
2022-11-28T22:44:00.727Z,98957.41
2022-11-28T22:46:28.484Z,98946.84
2022-11-28T22:48:55.356Z,98954.09
2022-11-28T22:51:25.204Z,98957.41
2022-11-28T22:54:00.194Z,98964.84
2022-11-28T22:56:28.024Z,98966.50
2022-11-28T22:58:55.215Z,98957.41
2022-11-28T23:01:25.197Z,98970.84
2022-11-28T23:03:53.357Z,98965.47
2022-11-28T23:06:28.587Z,98964.84
2022-11-28T23:08:56.833Z,98962.16
2022-11-28T23:11:26.121Z,98958.03
2022-11-28T23:13:53.762Z,98963.19
2022-11-28T23:16:24.169Z,98953.06
2022-11-28T23:18:53.847Z,98952.88
2022-11-28T23:21:22.369Z,98958.88
2022-11-28T23:23:50.050Z,98962.16
2022-11-28T23:26:22.205Z,98947.47
2022-11-28T23:28:49.902Z,98946.66
2022-11-28T23:31:19.806Z,98952.84
2022-11-28T23:33:47.168Z,98953.88
2022-11-28T23:36:19.847Z,98955.13
2022-11-28T23:38:48.445Z,98946.25
2022-11-28T23:41:15.599Z,98937.97
2022-11-28T23:43:43.073Z,98943.56
2022-11-28T23:46:11.259Z,98934.22
2022-11-28T23:48:38.829Z,98934.66
2022-11-28T23:51:06.437Z,98934.87
2022-11-28T23:53:34.340Z,98935.47
2022-11-28T23:56:06.163Z,98936.13
2022-11-28T23:58:34.826Z,98933.22
